createdAt,value
2022-11-16T00:01:02.649Z,95808.22
2022-11-16T00:03:32.659Z,95795.16
2022-11-16T00:06:03.557Z,95786.72
2022-11-16T00:08:35.093Z,95776.34
2022-11-16T00:11:09.351Z,95759.75
2022-11-16T00:13:39.399Z,95754.16
2022-11-16T00:16:16.032Z,95749.38
2022-11-16T00:18:45.391Z,95745.88
2022-11-16T00:21:14.037Z,95740.47
2022-11-16T00:23:42.301Z,95736.47
2022-11-16T00:26:13.938Z,95733.75
2022-11-16T00:28:42.559Z,95730.25
2022-11-16T00:31:12.523Z,95728.97
2022-11-16T00:33:41.462Z,95731.69
2022-11-16T00:36:13.275Z,95743.03
2022-11-16T00:38:42.487Z,95749.09
2022-11-16T00:41:11.688Z,95761.81
2022-11-16T00:43:40.343Z,95769.00
2022-11-16T00:46:10.887Z,95776.03
2022-11-16T00:48:39.492Z,95774.44
2022-11-16T00:51:08.149Z,95759.91
2022-11-16T00:53:37.414Z,95755.78
2022-11-16T00:56:07.190Z,95753.56
2022-11-16T00:58:41.992Z,95760.72
2022-11-16T01:01:16.151Z,95748.78
2022-11-16T01:03:44.985Z,95747.69
2022-11-16T01:06:16.165Z,95745.91
2022-11-16T01:08:45.802Z,95757.53
2022-11-16T01:11:34.069Z,95745.72
2022-11-16T01:14:04.297Z,95742.56
2022-11-16T01:16:34.481Z,95745.72
2022-11-16T01:19:03.874Z,95749.56
2022-11-16T01:21:32.511Z,95749.09
2022-11-16T01:24:00.869Z,95747.66
2022-11-16T01:26:29.579Z,95744.47
2022-11-16T01:28:59.956Z,95745.09
2022-11-16T01:31:33.678Z,95755.13
2022-11-16T01:34:04.835Z,95741.25
2022-11-16T01:36:35.464Z,95751.00
2022-11-16T01:39:05.299Z,95738.56
2022-11-16T01:41:45.216Z,95741.91
2022-11-16T01:44:57.883Z,95746.53
2022-11-16T01:47:28.626Z,95737.94
2022-11-16T01:50:11.032Z,95731.84
2022-11-16T01:52:49.105Z,95725.97
2022-11-16T01:55:19.174Z,95727.53
2022-11-16T01:58:03.821Z,95723.88
2022-11-16T02:00:34.317Z,95731.84
2022-11-16T02:03:23.164Z,95723.25
2022-11-16T02:06:17.184Z,95723.41
2022-11-16T02:09:26.123Z,95726.59
2022-11-16T02:12:38.110Z,95724.56
2022-11-16T02:15:20.939Z,95731.38
2022-11-16T02:18:13.414Z,95723.25
2022-11-16T02:21:11.377Z,95728.50
2022-11-16T02:24:12.043Z,95724.06
2022-11-16T02:26:54.326Z,95731.06
2022-11-16T02:29:29.754Z,95732.84
2022-11-16T02:32:06.162Z,95733.00
2022-11-16T02:34:43.469Z,95727.41
2022-11-16T02:37:15.855Z,95724.72
2022-11-16T02:39:49.098Z,95734.09
2022-11-16T02:42:29.872Z,95738.06
2022-11-16T02:45:01.735Z,95725.50
2022-11-16T02:47:35.433Z,95721.34
2022-11-16T02:50:10.085Z,95718.00
2022-11-16T02:52:40.043Z,95705.75
2022-11-16T02:55:11.515Z,95712.75
2022-11-16T02:57:45.311Z,95708.78
2022-11-16T03:00:22.709Z,95712.91
2022-11-16T03:03:17.338Z,95715.78
2022-11-16T03:05:51.361Z,95707.66
2022-11-16T03:08:26.490Z,95718.16
2022-11-16T03:11:18.184Z,95710.03
2022-11-16T03:13:48.180Z,95695.69
2022-11-16T03:16:23.830Z,95708.44
2022-11-16T03:18:54.855Z,95705.88
2022-11-16T03:21:35.547Z,95712.44
2022-11-16T03:24:04.498Z,95703.69
2022-11-16T03:26:48.832Z,95689.84
2022-11-16T03:29:31.194Z,95687.91
2022-11-16T03:32:14.614Z,95686.94
2022-11-16T03:34:52.394Z,95694.75
2022-11-16T03:37:22.901Z,95692.03
2022-11-16T03:39:54.649Z,95683.59
2022-11-16T03:42:27.132Z,95685.06
2022-11-16T03:44:57.482Z,95698.41
2022-11-16T03:47:28.820Z,95703.19
2022-11-16T03:49:57.200Z,95731.22
2022-11-16T03:52:26.661Z,95733.16
2022-11-16T03:54:55.051Z,95725.66
2022-11-16T03:57:26.013Z,95728.34
2022-11-16T03:59:59.898Z,95726.75
2022-11-16T04:02:29.700Z,95726.94
2022-11-16T04:05:17.403Z,95726.94
2022-11-16T04:08:03.637Z,95724.06
2022-11-16T04:11:01.035Z,95724.06
2022-11-16T04:13:50.901Z,95744.91
2022-11-16T04:16:37.195Z,95739.50
2022-11-16T04:19:28.926Z,95761.03
2022-11-16T04:22:17.817Z,95759.13
2022-11-16T04:24:52.541Z,95764.53
2022-11-16T04:27:42.364Z,95773.91
2022-11-16T04:30:12.912Z,95768.03
2022-11-16T04:32:59.367Z,95774.25
2022-11-16T04:35:46.480Z,95770.75
2022-11-16T04:38:15.871Z,95770.91
2022-11-16T04:40:44.240Z,95770.25
2022-11-16T04:43:13.411Z,95772.81
2022-11-16T04:46:02.408Z,95769.31
2022-11-16T04:48:38.325Z,95765.00
2022-11-16T04:51:08.117Z,95752.25
2022-11-16T04:53:37.212Z,95758.34
2022-11-16T04:56:15.197Z,95759.75
2022-11-16T04:58:44.320Z,95771.22
2022-11-16T05:01:12.725Z,95772.97
2022-11-16T05:03:41.131Z,95770.75
2022-11-16T05:06:10.905Z,95764.53
2022-11-16T05:08:39.490Z,95775.53
2022-11-16T05:11:08.178Z,95769.31
2022-11-16T05:13:36.634Z,95780.16
2022-11-16T05:16:05.900Z,95782.84
2022-11-16T05:18:34.703Z,95783.34
2022-11-16T05:21:04.310Z,95787.47
2022-11-16T05:23:56.566Z,95784.13
2022-11-16T05:26:28.147Z,95786.81
2022-11-16T05:28:56.808Z,95784.75
2022-11-16T05:31:25.143Z,95788.59
2022-11-16T05:33:54.330Z,95773.59
2022-11-16T05:36:23.583Z,95775.06
2022-11-16T05:38:56.277Z,95766.78
2022-11-16T05:41:27.426Z,95763.28
2022-11-16T05:43:56.150Z,95756.09
2022-11-16T05:46:25.507Z,95753.69
2022-11-16T05:48:56.681Z,95755.94
2022-11-16T05:51:25.389Z,95758.13
2022-11-16T05:53:56.852Z,95746.22
2022-11-16T05:56:26.220Z,95748.44
2022-11-16T05:58:56.874Z,95743.81
2022-11-16T06:01:26.581Z,95749.38
2022-11-16T06:03:55.560Z,95740.78
2022-11-16T06:06:24.340Z,95745.09
2022-11-16T06:08:53.807Z,95748.13
2022-11-16T06:11:32.726Z,95745.56
2022-11-16T06:14:04.787Z,95740.00
2022-11-16T06:16:34.342Z,95745.75
2022-11-16T06:19:06.028Z,95747.63
2022-11-16T06:21:34.553Z,95751.16
2022-11-16T06:24:08.996Z,95750.53
2022-11-16T06:26:39.301Z,95746.22
2022-11-16T06:29:07.947Z,95753.53
2022-11-16T06:31:37.135Z,95760.84
2022-11-16T06:34:06.120Z,95761.34
2022-11-16T06:36:35.627Z,95754.81
2022-11-16T06:39:04.701Z,95753.84
2022-11-16T06:41:41.373Z,95759.59
2022-11-16T06:44:12.013Z,95751.16
2022-11-16T06:46:47.725Z,95748.13
2022-11-16T06:49:16.088Z,95751.63
2022-11-16T06:51:44.458Z,95754.97
2022-11-16T06:54:12.843Z,95766.78
2022-11-16T06:56:42.536Z,95762.13
2022-11-16T06:59:11.639Z,95755.47
2022-11-16T07:01:40.153Z,95758.66
2022-11-16T07:04:15.941Z,95761.03
2022-11-16T07:06:51.447Z,95764.53
2022-11-16T07:09:20.480Z,95774.72
2022-11-16T07:11:51.113Z,95773.94
2022-11-16T07:14:21.017Z,95768.53
2022-11-16T07:16:54.859Z,95772.34
2022-11-16T07:19:26.348Z,95778.22
2022-11-16T07:21:55.104Z,95771.56
2022-11-16T07:24:24.396Z,95768.22
2022-11-16T07:26:54.448Z,95775.88
2022-11-16T07:29:26.784Z,95772.03
2022-11-16T07:32:24.735Z,95772.81
2022-11-16T07:35:12.705Z,95772.81
2022-11-16T07:37:42.033Z,95769.16
2022-11-16T07:40:11.652Z,95781.28
2022-11-16T07:42:43.604Z,95778.72
2022-11-16T07:45:21.262Z,95788.16
2022-11-16T07:47:55.126Z,95788.16
2022-11-16T07:50:49.654Z,95776.50
2022-11-16T07:53:19.258Z,95782.09
2022-11-16T07:55:54.497Z,95784.31
2022-11-16T07:58:26.190Z,95784.31
2022-11-16T08:00:55.858Z,95794.34
2022-11-16T08:03:24.888Z,95782.72
2022-11-16T08:06:01.216Z,95780.50
2022-11-16T08:08:30.630Z,95791.00
2022-11-16T08:11:01.486Z,95786.06
2022-11-16T08:13:34.237Z,95783.50
2022-11-16T08:16:05.103Z,95790.22
2022-11-16T08:18:35.491Z,95780.66
2022-11-16T08:21:05.527Z,95784.16
2022-11-16T08:23:34.861Z,95781.59
2022-11-16T08:26:07.470Z,95786.25
2022-11-16T08:28:38.378Z,95794.22
2022-11-16T08:31:10.743Z,95790.72
2022-11-16T08:33:40.654Z,95796.13
2022-11-16T08:36:17.180Z,95801.03
2022-11-16T08:38:47.546Z,95798.97
2022-11-16T08:41:17.382Z,95804.09
2022-11-16T08:43:50.565Z,95808.69
2022-11-16T08:46:22.812Z,95803.13
2022-11-16T08:48:57.959Z,95803.44
2022-11-16T08:51:27.105Z,95807.13
2022-11-16T08:54:03.666Z,95810.28
2022-11-16T08:56:33.703Z,95803.59
2022-11-16T08:59:03.501Z,95817.28
2022-11-16T09:01:33.528Z,95808.22
2022-11-16T09:04:02.147Z,95813.78
2022-11-16T09:06:30.835Z,95819.72
2022-11-16T09:08:59.338Z,95825.59
2022-11-16T09:11:27.779Z,95821.75
2022-11-16T09:13:57.503Z,95822.25
2022-11-16T09:16:27.961Z,95823.03
2022-11-16T09:18:57.150Z,95819.84
2022-11-16T09:21:27.686Z,95820.16
2022-11-16T09:23:58.191Z,95825.41
2022-11-16T09:26:27.077Z,95828.44
2022-11-16T09:28:58.196Z,95833.84
2022-11-16T09:31:29.094Z,95829.69
2022-11-16T09:33:59.363Z,95832.25
2022-11-16T09:36:29.562Z,95832.91
2022-11-16T09:39:30.236Z,95824.59
2022-11-16T09:42:06.653Z,95835.59
2022-11-16T09:44:53.481Z,95833.97
2022-11-16T09:47:33.753Z,95841.47
2022-11-16T09:50:06.878Z,95838.31
2022-11-16T09:52:41.988Z,95841.47
2022-11-16T09:55:26.736Z,95838.94
2022-11-16T09:58:01.132Z,95837.81
2022-11-16T10:00:32.274Z,95836.03
2022-11-16T10:03:08.238Z,95830.91
2022-11-16T10:05:44.815Z,95829.78
2022-11-16T10:08:21.198Z,95828.47
2022-11-16T10:11:04.981Z,95827.31
2022-11-16T10:13:51.968Z,95832.25
2022-11-16T10:16:31.264Z,95829.06
2022-11-16T10:19:15.874Z,95827.19
2022-11-16T10:21:56.944Z,95822.41
2022-11-16T10:24:44.476Z,95828.81
2022-11-16T10:27:47.306Z,95825.94
2022-11-16T10:30:19.409Z,95825.94
2022-11-16T10:32:53.672Z,95814.75
2022-11-16T10:35:32.132Z,95816.66
2022-11-16T10:38:04.056Z,95811.41
2022-11-16T10:40:39.894Z,95812.00
2022-11-16T10:43:17.711Z,95808.38
2022-11-16T10:45:52.980Z,95807.03
2022-11-16T10:48:37.298Z,95811.13
2022-11-16T10:51:09.254Z,95805.09
2022-11-16T10:53:40.906Z,95805.75
2022-11-16T10:56:18.628Z,95804.13
2022-11-16T10:58:56.715Z,95810.78
2022-11-16T11:01:38.112Z,95801.78
2022-11-16T11:04:28.690Z,95800.09
2022-11-16T11:07:00.486Z,95803.59
2022-11-16T11:09:32.882Z,95792.66
2022-11-16T11:12:34.009Z,95792.97
2022-11-16T11:15:13.432Z,95783.75
2022-11-16T11:17:44.908Z,95782.31
2022-11-16T11:20:24.592Z,95778.72
2022-11-16T11:22:58.355Z,95785.22
2022-11-16T11:25:30.186Z,95786.34
2022-11-16T11:28:08.959Z,95800.28
2022-11-16T11:30:37.911Z,95794.03
2022-11-16T11:33:12.416Z,95787.88
2022-11-16T11:35:40.864Z,95781.19
2022-11-16T11:38:17.167Z,95778.63
2022-11-16T11:40:59.627Z,95780.31
2022-11-16T11:43:30.167Z,95789.78
2022-11-16T11:46:14.072Z,95780.84
2022-11-16T11:48:54.564Z,95776.13
2022-11-16T11:51:32.724Z,95776.84
2022-11-16T11:54:05.916Z,95771.59
2022-11-16T11:56:34.979Z,95772.91
2022-11-16T11:59:05.953Z,95773.66
2022-11-16T12:02:20.119Z,95773.41
2022-11-16T12:05:23.896Z,95769.41
2022-11-16T12:08:22.603Z,95773.88
2022-11-16T12:11:01.547Z,95765.13
2022-11-16T12:14:01.524Z,95762.19
2022-11-16T12:16:43.618Z,95768.28
2022-11-16T12:19:46.636Z,95760.75
2022-11-16T12:22:37.879Z,95757.91
2022-11-16T12:25:24.974Z,95761.81
2022-11-16T12:28:14.938Z,95764.13
2022-11-16T12:31:10.198Z,95762.06
2022-11-16T12:33:49.380Z,95763.28
2022-11-16T12:36:35.594Z,95759.91
2022-11-16T12:39:14.811Z,95762.72
2022-11-16T12:42:25.505Z,95766.44
2022-11-16T12:45:26.408Z,95762.31
2022-11-16T12:48:27.348Z,95759.84
2022-11-16T12:51:07.861Z,95766.41
2022-11-16T12:54:09.873Z,95760.66
2022-11-16T12:56:51.825Z,95760.53
2022-11-16T12:59:45.290Z,95754.41
2022-11-16T13:02:34.977Z,95744.31
2022-11-16T13:05:13.312Z,95756.31
2022-11-16T13:07:47.943Z,95743.13
2022-11-16T13:10:23.469Z,95749.97
2022-11-16T13:13:29.777Z,95748.34
2022-11-16T13:15:48.977Z,95734.41
2022-11-16T13:18:24.025Z,95731.47
2022-11-16T13:21:02.335Z,95732.25
2022-11-16T13:23:50.716Z,95742.91
2022-11-16T13:26:28.376Z,95735.00
2022-11-16T13:29:06.079Z,95730.13
2022-11-16T13:31:43.826Z,95729.00
2022-11-16T13:34:23.794Z,95721.72
2022-11-16T13:36:52.464Z,95722.28
2022-11-16T13:39:42.328Z,95720.81
2022-11-16T13:42:15.070Z,95727.53
2022-11-16T13:44:48.769Z,95732.06
2022-11-16T13:47:25.658Z,95735.56
2022-11-16T13:49:59.562Z,95734.34
2022-11-16T13:53:36.520Z,95735.91
2022-11-16T13:55:36.360Z,95735.84
2022-11-16T13:58:07.361Z,95738.31
2022-11-16T14:00:40.131Z,95734.94
2022-11-16T14:03:29.043Z,95732.03
2022-11-16T14:05:58.789Z,95731.88
2022-11-16T14:08:51.700Z,95730.19
2022-11-16T14:11:36.198Z,95734.19
2022-11-16T14:14:06.833Z,95724.97
2022-11-16T14:16:49.061Z,95728.41
2022-11-16T14:19:55.573Z,95723.53
2022-11-16T14:22:52.038Z,95714.66
2022-11-16T14:25:33.630Z,95721.69
2022-11-16T14:28:25.401Z,95722.38
2022-11-16T14:31:11.173Z,95715.59
2022-11-16T14:33:40.111Z,95713.88
2022-11-16T14:36:11.401Z,95714.63
2022-11-16T14:38:43.344Z,95705.84
2022-11-16T14:41:22.013Z,95712.63
2022-11-16T14:43:54.568Z,95715.72
2022-11-16T14:46:27.167Z,95719.22
2022-11-16T14:48:57.700Z,95710.69
2022-11-16T14:51:32.007Z,95700.94
2022-11-16T14:54:06.141Z,95697.78
2022-11-16T14:56:34.969Z,95703.66
2022-11-16T14:59:04.760Z,95692.97
2022-11-16T15:01:37.907Z,95693.34
2022-11-16T15:04:10.465Z,95693.84
2022-11-16T15:06:44.887Z,95695.78
2022-11-16T15:09:20.905Z,95683.69
2022-11-16T15:12:09.744Z,95690.25
2022-11-16T15:14:45.629Z,95685.03
2022-11-16T15:17:17.598Z,95690.56
2022-11-16T15:19:56.321Z,95693.53
2022-11-16T15:22:28.904Z,95688.28
2022-11-16T15:25:01.037Z,95687.81
2022-11-16T15:27:37.789Z,95687.69
2022-11-16T15:30:18.123Z,95686.78
2022-11-16T15:32:49.662Z,95681.34
2022-11-16T15:35:23.250Z,95680.22
2022-11-16T15:38:03.320Z,95677.97
2022-11-16T15:40:34.976Z,95676.03
2022-11-16T15:43:07.671Z,95674.22
2022-11-16T15:45:38.525Z,95678.53
2022-11-16T15:48:07.636Z,95684.97
2022-11-16T15:50:36.040Z,95689.63
2022-11-16T15:53:04.692Z,95686.13
2022-11-16T15:55:39.783Z,95697.78
2022-11-16T15:58:15.380Z,95697.00
2022-11-16T16:00:47.701Z,95685.97
2022-11-16T16:03:24.495Z,95689.03
2022-11-16T16:05:54.585Z,95696.06
2022-11-16T16:08:35.715Z,95689.03
2022-11-16T16:11:28.821Z,95684.75
2022-11-16T16:14:03.015Z,95677.38
2022-11-16T16:16:36.315Z,95674.53
2022-11-16T16:19:10.076Z,95667.72
2022-11-16T16:21:45.514Z,95670.56
2022-11-16T16:24:40.031Z,95673.94
2022-11-16T16:27:17.155Z,95671.56
2022-11-16T16:29:46.731Z,95670.66
2022-11-16T16:32:25.482Z,95682.31
2022-11-16T16:34:54.191Z,95680.72
2022-11-16T16:37:23.373Z,95684.44
2022-11-16T16:39:51.687Z,95685.25
2022-11-16T16:42:22.133Z,95676.75
2022-11-16T16:44:51.310Z,95666.41
2022-11-16T16:47:21.156Z,95667.41
2022-11-16T16:49:49.918Z,95676.69
2022-11-16T16:52:19.210Z,95674.25
2022-11-16T16:54:47.869Z,95682.41
2022-11-16T16:57:17.542Z,95679.28
2022-11-16T16:59:48.505Z,95676.78
2022-11-16T17:02:18.247Z,95687.31
2022-11-16T17:04:48.457Z,95677.56
2022-11-16T17:07:17.359Z,95676.97
2022-11-16T17:09:46.240Z,95672.66
2022-11-16T17:12:14.677Z,95667.88
2022-11-16T17:14:43.031Z,95671.28
2022-11-16T17:17:12.700Z,95684.38
2022-11-16T17:19:41.338Z,95671.22
2022-11-16T17:22:09.667Z,95679.50
2022-11-16T17:24:38.315Z,95671.34
2022-11-16T17:27:06.857Z,95668.97
2022-11-16T17:29:35.744Z,95669.75
2022-11-16T17:32:04.500Z,95677.31
2022-11-16T17:34:34.196Z,95672.38
2022-11-16T17:37:02.584Z,95668.94
2022-11-16T17:39:30.913Z,95658.06
2022-11-16T17:41:59.261Z,95665.31
2022-11-16T17:44:27.681Z,95665.84
2022-11-16T17:46:56.750Z,95667.91
2022-11-16T17:49:25.109Z,95673.78
2022-11-16T17:51:54.827Z,95666.31
2022-11-16T17:54:23.486Z,95663.59
2022-11-16T17:56:52.166Z,95652.94
2022-11-16T17:59:24.966Z,95647.81
2022-11-16T18:01:57.664Z,95650.22
2022-11-16T18:04:26.275Z,95652.94
2022-11-16T18:06:56.985Z,95652.78
2022-11-16T18:09:25.370Z,95643.50
2022-11-16T18:11:53.774Z,95636.69
2022-11-16T18:14:22.928Z,95628.16
2022-11-16T18:16:51.286Z,95623.19
2022-11-16T18:19:20.963Z,95626.03
2022-11-16T18:21:49.876Z,95629.19
2022-11-16T18:24:19.546Z,95619.16
2022-11-16T18:26:47.877Z,95625.75
2022-11-16T18:29:18.662Z,95622.06
2022-11-16T18:31:47.361Z,95619.78
2022-11-16T18:34:16.767Z,95626.13
2022-11-16T18:36:46.387Z,95615.81
2022-11-16T18:39:15.036Z,95607.66
2022-11-16T18:41:54.483Z,95607.44
2022-11-16T18:44:23.926Z,95604.38
2022-11-16T18:46:52.444Z,95596.22
2022-11-16T18:49:20.842Z,95593.19
2022-11-16T18:51:49.519Z,95589.13
2022-11-16T18:54:18.152Z,95583.34
2022-11-16T18:56:47.875Z,95584.59
2022-11-16T18:59:16.198Z,95587.44
2022-11-16T19:01:44.843Z,95582.63
2022-11-16T19:04:13.494Z,95587.13
2022-11-16T19:06:41.879Z,95588.59
2022-11-16T19:09:11.434Z,95589.13
2022-11-16T19:11:39.860Z,95592.31
2022-11-16T19:14:10.170Z,95589.59
2022-11-16T19:16:43.466Z,95594.22
2022-11-16T19:19:17.355Z,95593.53
2022-11-16T19:21:45.978Z,95578.97
2022-11-16T19:24:14.363Z,95570.38
2022-11-16T19:26:42.690Z,95567.66
2022-11-16T19:29:12.495Z,95575.78
2022-11-16T19:31:42.709Z,95576.25
2022-11-16T19:34:13.915Z,95564.72
2022-11-16T19:36:42.271Z,95573.19
2022-11-16T19:39:10.927Z,95568.09
2022-11-16T19:41:39.266Z,95573.06
2022-11-16T19:44:07.617Z,95570.16
2022-11-16T19:46:37.363Z,95570.81
2022-11-16T19:49:05.733Z,95558.84
2022-11-16T19:51:35.295Z,95562.44
2022-11-16T19:54:04.472Z,95562.00
2022-11-16T19:56:32.935Z,95559.41
2022-11-16T19:59:01.659Z,95556.22
2022-11-16T20:01:30.248Z,95551.34
2022-11-16T20:04:03.429Z,95558.56
2022-11-16T20:06:34.239Z,95550.91
2022-11-16T20:09:08.757Z,95547.38
2022-11-16T20:11:40.231Z,95550.91
2022-11-16T20:14:11.717Z,95553.34
2022-11-16T20:16:43.140Z,95549.72
2022-11-16T20:19:12.898Z,95548.25
2022-11-16T20:21:43.589Z,95546.69
2022-11-16T20:24:15.220Z,95552.69
2022-11-16T20:26:46.289Z,95555.50
2022-11-16T20:29:16.851Z,95556.19
2022-11-16T20:31:46.125Z,95554.50
2022-11-16T20:34:18.518Z,95551.09
2022-11-16T20:36:50.743Z,95559.91
2022-11-16T20:39:21.188Z,95555.16
2022-11-16T20:41:50.234Z,95552.88
2022-11-16T20:44:22.113Z,95552.88
2022-11-16T20:46:52.374Z,95566.13
2022-11-16T20:49:22.324Z,95561.63
2022-11-16T20:51:51.347Z,95557.66
2022-11-16T20:54:19.663Z,95561.03
2022-11-16T20:56:49.807Z,95541.94
2022-11-16T20:59:18.176Z,95542.59
2022-11-16T21:01:48.859Z,95545.19
2022-11-16T21:04:17.768Z,95544.53
2022-11-16T21:06:47.463Z,95543.75
2022-11-16T21:09:22.401Z,95533.53
2022-11-16T21:12:08.352Z,95535.53
2022-11-16T21:14:36.972Z,95534.09
2022-11-16T21:17:05.458Z,95533.97
2022-11-16T21:19:33.749Z,95533.38
2022-11-16T21:22:03.764Z,95542.44
2022-11-16T21:24:32.275Z,95545.50
2022-11-16T21:27:00.665Z,95545.00
2022-11-16T21:29:28.976Z,95541.41
2022-11-16T21:31:57.589Z,95556.75
2022-11-16T21:34:27.845Z,95544.22
2022-11-16T21:36:56.478Z,95537.56
2022-11-16T21:39:27.314Z,95542.66
2022-11-16T21:41:55.884Z,95549.66
2022-11-16T21:44:24.474Z,95553.97
2022-11-16T21:46:53.379Z,95550.94
2022-11-16T21:49:22.011Z,95539.06
2022-11-16T21:51:50.307Z,95525.50
2022-11-16T21:54:18.626Z,95521.63
2022-11-16T21:56:48.284Z,95510.53
2022-11-16T21:59:16.608Z,95509.53
2022-11-16T22:02:00.666Z,95506.81
2022-11-16T22:04:49.120Z,95507.47
2022-11-16T22:07:33.684Z,95498.06
2022-11-16T22:10:02.599Z,95503.06
2022-11-16T22:12:32.235Z,95504.72
2022-11-16T22:15:00.905Z,95502.31
2022-11-16T22:17:29.664Z,95506.03
2022-11-16T22:19:58.359Z,95509.91
2022-11-16T22:22:27.045Z,95499.94
2022-11-16T22:24:55.679Z,95501.88
2022-11-16T22:27:24.415Z,95502.53
2022-11-16T22:29:54.328Z,95502.88
2022-11-16T22:32:22.647Z,95503.81
2022-11-16T22:34:51.389Z,95499.03
2022-11-16T22:37:20.057Z,95494.63
2022-11-16T22:39:48.362Z,95492.63
2022-11-16T22:42:16.965Z,95485.81
2022-11-16T22:44:45.596Z,95473.34
2022-11-16T22:47:15.500Z,95467.47
2022-11-16T22:49:44.129Z,95466.34
2022-11-16T22:52:12.800Z,95453.22
2022-11-16T22:54:41.392Z,95466.34
2022-11-16T22:57:09.975Z,95460.91
2022-11-16T22:59:38.302Z,95467.13
2022-11-16T23:02:08.464Z,95471.91
2022-11-16T23:04:38.160Z,95460.22
2022-11-16T23:07:06.583Z,95461.16
2022-11-16T23:09:35.365Z,95458.00
2022-11-16T23:12:21.732Z,95458.09
2022-11-16T23:15:07.777Z,95445.78
2022-11-16T23:17:36.077Z,95447.25
2022-11-16T23:20:24.113Z,95441.03
2022-11-16T23:23:10.050Z,95439.56
2022-11-16T23:25:56.164Z,95440.00
2022-11-16T23:28:24.811Z,95437.28
2022-11-16T23:30:53.170Z,95434.72
2022-11-16T23:33:42.182Z,95429.28
2022-11-16T23:36:12.664Z,95422.03
2022-11-16T23:38:41.703Z,95416.63
2022-11-16T23:41:27.578Z,95421.38
2022-11-16T23:43:58.901Z,95411.97
2022-11-16T23:46:28.350Z,95407.25
2022-11-16T23:48:56.798Z,95415.72
2022-11-16T23:51:26.802Z,95422.50
2022-11-16T23:53:55.947Z,95416.16
2022-11-16T23:56:24.908Z,95415.38
2022-11-16T23:58:58.271Z,95414.13
